METAR Data
IDs: Format: Raw Decoded Include TAF

Data at: 0717 UTC 07 Apr 2020

METAR for:KADW (Andrews AFB, MD, US)
Text:KADW 070656Z AUTO 19004KT 10SM SCT110 11/06 A2998 RMK AO2 SLP159 T01140063 $
Temperature: 11.4°C ( 53°F)
Dewpoint: 6.3°C ( 43°F) [RH = 71%]
Pressure (altimeter):29.98 inches Hg (1015.3 mb) [Sea level pressure: 1015.9 mb]
Winds:from the S (190 degrees) at 5 MPH (4 knots; 2.1 m/s)
Visibility:10 or more sm (16+ km)
Ceiling:at least 12,000 feet AGL
Clouds: scattered clouds at 11000 feet AGL
QC Flag:automated observation with no human augmentation; SOME DATA ABOVE MAY BE INACCURATE!!!"$" is an indication the sensor requires maintenance.